createdAt,value
2023-01-11T00:01:21.301Z,99602.88
2023-01-11T00:03:50.026Z,99599.38
2023-01-11T00:06:20.061Z,99585.56
2023-01-11T00:08:48.574Z,99595.13
2023-01-11T00:11:17.820Z,99592.47
2023-01-11T00:13:49.027Z,99600.31
2023-01-11T00:16:18.434Z,99597.72
2023-01-11T00:18:46.892Z,99589.03
2023-01-11T00:21:15.520Z,99605.53
2023-01-11T00:23:45.294Z,99596.00
2023-01-11T00:26:14.350Z,99584.72
2023-01-11T00:28:42.840Z,99589.91
2023-01-11T00:31:11.452Z,99574.31
2023-01-11T00:33:39.958Z,99579.50
2023-01-11T00:36:09.815Z,99575.25
2023-01-11T00:38:54.747Z,99572.63
2023-01-11T00:41:42.392Z,99569.19
2023-01-11T00:44:28.818Z,99561.47
2023-01-11T00:47:14.674Z,99566.72
2023-01-11T00:49:43.382Z,99568.53
2023-01-11T00:52:12.246Z,99565.13
2023-01-11T00:54:42.221Z,99565.22
2023-01-11T00:57:12.067Z,99555.75
2023-01-11T00:59:40.602Z,99564.44
2023-01-11T01:02:10.226Z,99561.03
2023-01-11T01:04:38.837Z,99561.13
2023-01-11T01:07:07.894Z,99568.06
2023-01-11T01:09:36.340Z,99561.19
2023-01-11T01:12:06.997Z,99568.19
2023-01-11T01:14:36.397Z,99569.16
2023-01-11T01:17:08.235Z,99568.38
2023-01-11T01:19:38.776Z,99562.38
2023-01-11T01:22:07.402Z,99566.78
2023-01-11T01:24:35.940Z,99574.66
2023-01-11T01:27:04.629Z,99569.47
2023-01-11T01:29:33.259Z,99562.59
2023-01-11T01:32:02.997Z,99563.53
2023-01-11T01:34:31.425Z,99566.97
2023-01-11T01:36:59.778Z,99554.88
2023-01-11T01:39:28.395Z,99548.84
2023-01-11T01:41:56.811Z,99541.91
2023-01-11T01:45:00.885Z,99536.78
2023-01-11T01:47:44.410Z,99535.06
2023-01-11T01:50:21.466Z,99525.56
2023-01-11T01:52:52.902Z,99521.25
2023-01-11T01:55:28.246Z,99525.69
2023-01-11T01:57:58.894Z,99534.38
2023-01-11T02:00:27.457Z,99525.75
2023-01-11T02:02:59.925Z,99521.47
2023-01-11T02:05:28.734Z,99527.59
2023-01-11T02:08:00.851Z,99519.78
2023-01-11T02:10:29.464Z,99516.44
2023-01-11T02:13:02.147Z,99524.25
2023-01-11T02:15:30.979Z,99526.91
2023-01-11T02:18:00.737Z,99526.03
2023-01-11T02:21:02.498Z,99516.50
2023-01-11T02:23:55.475Z,99513.91
2023-01-11T02:27:07.659Z,99506.09
2023-01-11T02:29:52.362Z,99499.97
2023-01-11T02:32:28.905Z,99499.97
2023-01-11T02:35:06.491Z,99501.72
2023-01-11T02:37:43.742Z,99497.44
2023-01-11T02:40:25.108Z,99488.69
2023-01-11T02:43:16.324Z,99490.44
2023-01-11T02:45:53.200Z,99474.00
2023-01-11T02:48:38.309Z,99478.34
2023-01-11T02:51:08.925Z,99477.53
2023-01-11T02:53:42.520Z,99478.41
2023-01-11T02:56:17.317Z,99472.31
2023-01-11T02:58:47.898Z,99474.06
2023-01-11T03:01:19.029Z,99479.34
2023-01-11T03:03:47.556Z,99465.50
2023-01-11T03:06:20.644Z,99453.34
2023-01-11T03:09:12.672Z,99453.44
2023-01-11T03:12:11.944Z,99449.09
2023-01-11T03:14:49.484Z,99449.16
2023-01-11T03:17:32.427Z,99443.13
2023-01-11T03:20:10.552Z,99448.41
2023-01-11T03:22:49.015Z,99439.78
2023-01-11T03:25:23.468Z,99446.72
2023-01-11T03:27:57.447Z,99438.97
2023-01-11T03:30:35.875Z,99441.59
2023-01-11T03:33:11.811Z,99446.88
2023-01-11T03:35:44.253Z,99437.38
2023-01-11T03:38:17.936Z,99443.53
2023-01-11T03:40:51.670Z,99451.34
2023-01-11T03:43:22.709Z,99442.78
2023-01-11T03:45:55.068Z,99437.56
2023-01-11T03:48:29.563Z,99444.56
2023-01-11T03:51:02.912Z,99443.75
2023-01-11T03:53:34.895Z,99449.00
2023-01-11T03:56:06.867Z,99442.97
2023-01-11T03:58:37.357Z,99441.28
2023-01-11T04:01:05.965Z,99441.28
2023-01-11T04:03:35.796Z,99438.75
2023-01-11T04:06:04.430Z,99439.72
2023-01-11T04:08:32.935Z,99427.56
2023-01-11T04:11:01.343Z,99425.88
2023-01-11T04:13:29.725Z,99421.53
2023-01-11T04:15:58.205Z,99418.09
2023-01-11T04:18:26.814Z,99414.63
2023-01-11T04:20:56.718Z,99420.78
2023-01-11T04:23:25.117Z,99419.94
2023-01-11T04:25:53.597Z,99420.84
2023-01-11T04:28:22.011Z,99417.41
2023-01-11T04:30:50.474Z,99427.84
2023-01-11T04:33:19.572Z,99420.06
2023-01-11T04:35:49.902Z,99413.13
2023-01-11T04:38:19.875Z,99411.38
2023-01-11T04:40:49.007Z,99417.53
2023-01-11T04:43:16.416Z,99407.16
2023-01-11T04:45:44.894Z,99408.03
2023-01-11T04:48:13.641Z,99410.69
2023-01-11T04:50:42.597Z,99406.34
2023-01-11T04:53:11.182Z,99406.34
2023-01-11T04:55:41.172Z,99415.09
2023-01-11T04:58:10.135Z,99402.94
2023-01-11T05:00:38.773Z,99406.47
2023-01-11T05:03:07.347Z,99397.81
2023-01-11T05:05:36.436Z,99406.56
2023-01-11T05:08:05.014Z,99410.06
2023-01-11T05:10:33.876Z,99405.75
2023-01-11T05:13:04.229Z,99399.72
2023-01-11T05:15:35.786Z,99385.88
2023-01-11T05:18:06.311Z,99392.88
2023-01-11T05:20:36.073Z,99403.38
2023-01-11T05:23:04.841Z,99402.50
2023-01-11T05:25:33.437Z,99398.22
2023-01-11T05:28:03.611Z,99404.41
2023-01-11T05:30:36.468Z,99406.16
2023-01-11T05:33:07.882Z,99400.97
2023-01-11T05:35:36.905Z,99406.25
2023-01-11T05:38:06.376Z,99408.91
2023-01-11T05:40:35.946Z,99396.75
2023-01-11T05:43:10.386Z,99402.88
2023-01-11T05:45:38.972Z,99396.84
2023-01-11T05:48:08.298Z,99404.72
2023-01-11T05:50:39.051Z,99396.03
2023-01-11T05:53:08.210Z,99393.47
2023-01-11T05:55:39.614Z,99393.53
2023-01-11T05:58:09.453Z,99398.78
2023-01-11T06:00:38.039Z,99403.19
2023-01-11T06:03:06.940Z,99397.09
2023-01-11T06:05:36.144Z,99392.81
2023-01-11T06:08:05.494Z,99399.78
2023-01-11T06:10:35.613Z,99396.34
2023-01-11T06:13:22.766Z,99395.47
2023-01-11T06:15:56.651Z,99390.28
2023-01-11T06:18:25.559Z,99390.31
2023-01-11T06:21:05.239Z,99385.09
2023-01-11T06:23:35.538Z,99387.75
2023-01-11T06:26:05.253Z,99393.00
2023-01-11T06:28:34.850Z,99389.53
2023-01-11T06:31:09.311Z,99393.88
2023-01-11T06:33:38.657Z,99394.78
2023-01-11T06:36:09.269Z,99397.41
2023-01-11T06:38:38.470Z,99405.28
2023-01-11T06:41:09.671Z,99406.16
2023-01-11T06:43:42.106Z,99401.88
2023-01-11T06:46:14.100Z,99397.56
2023-01-11T06:48:43.006Z,99384.50
2023-01-11T06:51:12.554Z,99404.53
2023-01-11T06:53:42.174Z,99403.66
2023-01-11T06:56:13.991Z,99402.84
2023-01-11T06:58:43.985Z,99402.84
2023-01-11T07:01:15.834Z,99403.75
2023-01-11T07:03:45.437Z,99415.09
2023-01-11T07:06:14.293Z,99405.53
2023-01-11T07:08:43.731Z,99410.78
2023-01-11T07:11:13.570Z,99422.16
2023-01-11T07:13:42.537Z,99440.47
2023-01-11T07:16:17.804Z,99431.78
2023-01-11T07:18:54.059Z,99426.59
2023-01-11T07:21:23.086Z,99444.00
2023-01-11T07:23:53.125Z,99448.41
2023-01-11T07:26:21.731Z,99463.25
2023-01-11T07:28:50.164Z,99465.88
2023-01-11T07:31:18.712Z,99466.81
2023-01-11T07:33:47.221Z,99472.97
2023-01-11T07:36:16.942Z,99485.25
2023-01-11T07:38:45.398Z,99487.03
2023-01-11T07:41:27.624Z,99493.13
2023-01-11T07:43:56.070Z,99490.63
2023-01-11T07:46:24.566Z,99487.13
2023-01-11T07:48:53.248Z,99479.34
2023-01-11T07:51:24.349Z,99473.31
2023-01-11T07:53:52.880Z,99476.84
2023-01-11T07:56:23.437Z,99469.03
2023-01-11T07:58:52.016Z,99468.22
2023-01-11T08:01:20.341Z,99474.34
2023-01-11T08:03:48.952Z,99472.63
2023-01-11T08:06:17.561Z,99480.50
2023-01-11T08:08:50.027Z,99490.09
2023-01-11T08:11:35.918Z,99484.97
2023-01-11T08:14:21.570Z,99489.34
2023-01-11T08:16:49.963Z,99487.63
2023-01-11T08:19:18.569Z,99489.41
2023-01-11T08:21:46.980Z,99502.53
2023-01-11T08:24:17.035Z,99503.44
2023-01-11T08:26:46.916Z,99506.09
2023-01-11T08:29:15.382Z,99503.50
2023-01-11T08:31:45.163Z,99505.28
2023-01-11T08:34:19.438Z,99511.47
2023-01-11T08:36:47.965Z,99524.56
2023-01-11T08:39:17.835Z,99524.63
2023-01-11T08:41:46.264Z,99534.25
2023-01-11T08:44:22.310Z,99536.88
2023-01-11T08:47:02.519Z,99558.69
2023-01-11T08:49:31.463Z,99545.66
2023-01-11T08:51:59.910Z,99550.06
2023-01-11T08:54:29.654Z,99547.44
2023-01-11T08:56:58.165Z,99546.50
2023-01-11T08:59:26.688Z,99552.56
2023-01-11T09:01:55.095Z,99551.69
2023-01-11T09:04:25.413Z,99567.38
2023-01-11T09:06:54.792Z,99576.09
2023-01-11T09:09:23.348Z,99583.00
2023-01-11T09:11:56.868Z,99583.00
2023-01-11T09:14:27.160Z,99585.59
2023-01-11T09:16:56.667Z,99589.06
2023-01-11T09:19:25.589Z,99605.63
2023-01-11T09:21:58.120Z,99613.47
2023-01-11T09:24:26.721Z,99609.06
2023-01-11T09:27:00.605Z,99622.97
2023-01-11T09:29:29.283Z,99620.34
2023-01-11T09:32:00.767Z,99624.66
2023-01-11T09:34:29.127Z,99613.31
2023-01-11T09:37:00.660Z,99632.50
2023-01-11T09:39:29.572Z,99635.06
2023-01-11T09:42:15.598Z,99642.00
2023-01-11T09:44:51.656Z,99648.03
2023-01-11T09:47:32.506Z,99650.63
2023-01-11T09:50:16.663Z,99645.38
2023-01-11T09:52:49.755Z,99656.69
2023-01-11T09:55:24.604Z,99654.91
2023-01-11T09:58:03.623Z,99661.81
2023-01-11T10:00:42.889Z,99662.63
2023-01-11T10:03:39.470Z,99667.81
2023-01-11T10:06:17.506Z,99670.41
2023-01-11T10:18:32.088Z,99666.78
2023-01-11T10:18:44.804Z,99671.13
2023-01-11T10:21:15.835Z,99678.09
2023-01-11T10:23:50.697Z,99678.94
2023-01-11T10:26:31.180Z,99679.81
2023-01-11T10:29:21.906Z,99675.47
2023-01-11T10:32:33.878Z,99677.16
2023-01-11T10:35:33.038Z,99687.63
2023-01-11T10:38:25.303Z,99692.84
2023-01-11T10:41:09.587Z,99704.19
2023-01-11T10:43:42.654Z,99705.09
2023-01-11T10:46:17.197Z,99704.19
2023-01-11T10:48:49.054Z,99702.47
2023-01-11T10:51:27.266Z,99704.19
2023-01-11T10:54:02.954Z,99700.75
2023-01-11T10:57:01.659Z,99701.56
2023-01-11T10:59:48.586Z,99692.84
2023-01-11T11:02:30.011Z,99698.06
2023-01-11T11:05:12.865Z,99699.81
2023-01-11T11:07:51.237Z,99705.97
2023-01-11T11:10:25.804Z,99701.56
2023-01-11T11:12:57.375Z,99699.88
2023-01-11T11:15:33.673Z,99698.94
2023-01-11T11:18:02.160Z,99704.22
2023-01-11T11:20:34.138Z,99707.72
2023-01-11T11:23:02.601Z,99710.38
2023-01-11T11:25:47.817Z,99715.66
2023-01-11T11:28:28.212Z,99713.97
2023-01-11T11:30:59.016Z,99717.53
2023-01-11T11:33:35.492Z,99726.25
2023-01-11T11:36:12.559Z,99729.72
2023-01-11T11:39:01.825Z,99727.19
2023-01-11T11:41:30.304Z,99715.91
2023-01-11T11:44:18.596Z,99718.56
2023-01-11T11:46:58.594Z,99729.06
2023-01-11T11:49:28.191Z,99723.03
2023-01-11T11:52:00.377Z,99729.97
2023-01-11T11:54:31.601Z,99741.34
2023-01-11T11:57:13.674Z,99742.31
2023-01-11T11:59:47.301Z,99738.84
2023-01-11T12:02:26.021Z,99746.75
2023-01-11T12:04:57.466Z,99746.81
2023-01-11T12:07:34.431Z,99737.22
2023-01-11T12:10:12.838Z,99739.78
2023-01-11T12:12:51.068Z,99736.13
2023-01-11T12:15:23.598Z,99747.41
2023-01-11T12:17:55.131Z,99739.44
2023-01-11T12:20:32.201Z,99738.50
2023-01-11T12:23:16.849Z,99741.88
2023-01-11T12:26:12.543Z,99738.38
2023-01-11T12:29:08.183Z,99735.72
2023-01-11T12:31:50.360Z,99726.13
2023-01-11T12:34:33.573Z,99735.84
2023-01-11T12:37:17.046Z,99729.91
2023-01-11T12:39:54.576Z,99741.25
2023-01-11T12:42:51.044Z,99735.19
2023-01-11T12:45:37.215Z,99745.66
2023-01-11T12:48:26.308Z,99739.53
2023-01-11T12:51:07.557Z,99736.94
2023-01-11T12:53:52.894Z,99736.06
2023-01-11T12:56:36.524Z,99735.25
2023-01-11T12:59:18.520Z,99739.66
2023-01-11T13:01:57.243Z,99743.16
2023-01-11T13:05:00.418Z,99748.47
2023-01-11T13:07:39.958Z,99749.31
2023-01-11T13:10:34.204Z,99758.88
2023-01-11T13:13:12.120Z,99763.25
2023-01-11T13:15:49.473Z,99772.84
2023-01-11T13:18:28.646Z,99771.09
2023-01-11T13:21:03.226Z,99778.06
2023-01-11T13:23:40.239Z,99771.84
2023-01-11T13:26:18.719Z,99772.66
2023-01-11T13:28:53.012Z,99776.16
2023-01-11T13:31:21.606Z,99777.03
2023-01-11T13:33:57.338Z,99784.94
2023-01-11T13:36:29.418Z,99786.78
2023-01-11T13:39:03.530Z,99785.91
2023-01-11T13:41:39.307Z,99791.22
2023-01-11T13:44:16.860Z,99793.00
2023-01-11T13:46:54.896Z,99800.03
2023-01-11T13:49:49.188Z,99782.59
2023-01-11T13:52:20.881Z,99784.28
2023-01-11T13:55:05.597Z,99780.81
2023-01-11T13:57:44.472Z,99784.28
2023-01-11T14:00:23.679Z,99790.41
2023-01-11T14:02:59.882Z,99796.59
2023-01-11T14:05:35.094Z,99808.88
2023-01-11T14:08:18.791Z,99796.66
2023-01-11T14:10:56.395Z,99791.38
2023-01-11T14:14:06.464Z,99794.00
2023-01-11T14:16:46.281Z,99807.13
2023-01-11T14:19:23.794Z,99803.63
2023-01-11T14:22:05.821Z,99806.25
2023-01-11T14:24:39.658Z,99806.19
2023-01-11T14:27:25.683Z,99819.22
2023-01-11T14:30:27.948Z,99821.72
2023-01-11T14:33:36.854Z,99828.63
2023-01-11T14:36:29.711Z,99830.34
2023-01-11T14:39:24.531Z,99832.13
2023-01-11T14:42:31.069Z,99831.22
2023-01-11T14:45:23.428Z,99835.59
2023-01-11T14:48:04.956Z,99836.53
2023-01-11T14:50:46.570Z,99839.19
2023-01-11T14:53:21.000Z,99852.22
2023-01-11T14:55:49.797Z,99847.84
2023-01-11T14:58:24.857Z,99850.47
2023-01-11T15:01:09.537Z,99850.47
2023-01-11T15:03:58.529Z,99868.78
2023-01-11T15:06:53.922Z,99855.59
2023-01-11T15:09:44.772Z,99846.84
2023-01-11T15:12:15.075Z,99842.47
2023-01-11T15:14:48.358Z,99839.84
2023-01-11T15:17:37.437Z,99839.78
2023-01-11T15:20:11.828Z,99832.75
2023-01-11T15:22:42.357Z,99832.75
2023-01-11T15:25:22.968Z,99843.16
2023-01-11T15:27:54.896Z,99841.31
2023-01-11T15:30:43.098Z,99843.00
2023-01-11T15:33:46.726Z,99849.06
2023-01-11T15:36:19.892Z,99838.53
2023-01-11T15:39:02.110Z,99850.69
2023-01-11T15:42:06.532Z,99850.56
2023-01-11T15:44:53.738Z,99857.50
2023-01-11T15:47:54.880Z,99855.69
2023-01-11T15:50:52.382Z,99840.75
2023-01-11T15:53:45.859Z,99864.22
2023-01-11T15:56:47.704Z,99871.19
2023-01-11T15:59:56.579Z,99872.88
2023-01-11T16:03:13.382Z,99875.50
2023-01-11T16:05:45.176Z,99875.50
2023-01-11T16:08:20.617Z,99891.16
2023-01-11T16:10:57.814Z,99872.84
2023-01-11T16:14:01.340Z,99872.81
2023-01-11T16:16:32.358Z,99869.25
2023-01-11T16:19:08.995Z,99875.34
2023-01-11T16:21:44.134Z,99870.03
2023-01-11T16:24:20.332Z,99883.09
2023-01-11T16:26:52.253Z,99876.94
2023-01-11T16:29:24.685Z,99873.47
2023-01-11T16:31:58.431Z,99886.47
2023-01-11T16:34:33.355Z,99892.56
2023-01-11T16:37:03.441Z,99897.72
2023-01-11T16:39:35.697Z,99902.88
2023-01-11T16:42:11.796Z,99922.88
2023-01-11T16:44:53.249Z,99925.50
2023-01-11T16:47:23.154Z,99935.97
2023-01-11T16:50:21.253Z,99934.22
2023-01-11T16:52:53.350Z,99942.94
2023-01-11T16:55:36.057Z,99948.16
2023-01-11T16:58:07.953Z,99948.16
2023-01-11T17:00:42.251Z,99961.16
2023-01-11T17:03:22.505Z,99953.38
2023-01-11T17:06:26.281Z,99957.75
2023-01-11T17:08:56.737Z,99955.06
2023-01-11T17:11:32.362Z,99948.09
2023-01-11T17:14:33.917Z,99943.69
2023-01-11T17:17:07.906Z,99954.06
2023-01-11T17:19:45.314Z,99946.94
2023-01-11T17:22:26.559Z,99960.00
2023-01-11T17:24:59.946Z,99959.13
2023-01-11T17:27:35.607Z,99964.28
2023-01-11T17:30:06.615Z,99973.75
2023-01-11T17:32:39.173Z,99973.66
2023-01-11T17:35:15.671Z,99977.13
2023-01-11T17:37:46.436Z,99962.31
2023-01-11T17:40:24.041Z,99971.00
2023-01-11T17:43:10.619Z,99965.72
2023-01-11T17:45:39.581Z,99966.47
2023-01-11T17:48:15.046Z,99964.66
2023-01-11T17:50:49.043Z,99962.84
2023-01-11T17:53:22.227Z,99960.13
2023-01-11T17:55:52.257Z,99962.59
2023-01-11T17:58:26.188Z,99959.13
2023-01-11T18:01:18.146Z,99963.47
2023-01-11T18:03:52.638Z,99965.19
2023-01-11T18:06:25.323Z,99960.78
2023-01-11T18:08:55.566Z,99963.38
2023-01-11T18:11:26.168Z,99960.69
2023-01-11T18:13:56.388Z,99969.38
2023-01-11T18:16:25.028Z,99977.16
2023-01-11T18:18:55.825Z,99972.72
2023-01-11T18:21:52.667Z,99969.19
2023-01-11T18:24:45.039Z,99963.88
2023-01-11T18:27:26.265Z,99968.16
2023-01-11T18:29:55.979Z,99965.53
2023-01-11T18:32:24.686Z,99970.69
2023-01-11T18:34:56.300Z,99969.72
2023-01-11T18:37:24.709Z,99974.00
2023-01-11T18:39:53.975Z,99973.91
2023-01-11T18:42:28.623Z,99974.78
2023-01-11T18:44:56.944Z,99969.44
2023-01-11T18:47:27.213Z,99960.69
2023-01-11T18:49:57.980Z,99957.25
2023-01-11T18:52:27.972Z,99953.75
2023-01-11T18:54:57.142Z,99952.88
2023-01-11T18:57:26.283Z,99937.22
2023-01-11T18:59:55.772Z,99930.19
2023-01-11T19:02:26.816Z,99945.91
2023-01-11T19:04:58.008Z,99936.31
2023-01-11T19:07:27.465Z,99940.63
2023-01-11T19:09:55.943Z,99928.38
2023-01-11T19:12:24.851Z,99935.34
2023-01-11T19:15:01.667Z,99923.94
2023-01-11T19:17:30.138Z,99913.44
2023-01-11T19:20:00.040Z,99918.59
2023-01-11T19:22:33.333Z,99902.94
2023-01-11T19:25:01.837Z,99920.22
2023-01-11T19:27:30.270Z,99922.84
2023-01-11T19:30:06.153Z,99914.94
2023-01-11T19:32:34.594Z,99913.22
2023-01-11T19:35:04.701Z,99920.16
2023-01-11T19:37:34.127Z,99922.84
2023-01-11T19:40:02.714Z,99927.19
2023-01-11T19:42:31.250Z,99928.06
2023-01-11T19:44:59.695Z,99931.47
2023-01-11T19:47:28.190Z,99925.38
2023-01-11T19:49:59.008Z,99924.56
2023-01-11T19:52:29.068Z,99931.47
2023-01-11T19:54:58.099Z,99942.75
2023-01-11T19:57:27.496Z,99934.94
2023-01-11T19:59:55.947Z,99931.44
2023-01-11T20:02:24.566Z,99920.16
2023-01-11T20:04:53.044Z,99919.28
2023-01-11T20:07:21.727Z,99908.84
2023-01-11T20:09:51.703Z,99904.50
2023-01-11T20:12:20.160Z,99907.13
2023-01-11T20:14:48.751Z,99905.31
2023-01-11T20:17:20.888Z,99893.19
2023-01-11T20:19:54.517Z,99884.53
2023-01-11T20:22:23.665Z,99875.88
2023-01-11T20:24:56.972Z,99888.06
2023-01-11T20:27:25.551Z,99883.72
2023-01-11T20:29:54.168Z,99875.97
2023-01-11T20:32:40.450Z,99877.72
2023-01-11T20:35:11.425Z,99871.75
2023-01-11T20:37:39.878Z,99865.63
2023-01-11T20:40:14.179Z,99867.41
2023-01-11T20:42:43.096Z,99863.94
2023-01-11T20:45:12.855Z,99860.53
2023-01-11T20:47:41.332Z,99849.22
2023-01-11T20:50:10.902Z,99847.56
2023-01-11T20:52:42.237Z,99853.72
2023-01-11T20:55:12.419Z,99855.47
2023-01-11T20:57:42.006Z,99861.63
2023-01-11T21:00:14.406Z,99858.16
2023-01-11T21:02:47.824Z,99850.34
2023-01-11T21:05:21.373Z,99858.22
2023-01-11T21:07:53.778Z,99850.41
2023-01-11T21:10:27.428Z,99849.59
2023-01-11T21:13:04.381Z,99855.75
2023-01-11T21:15:34.729Z,99842.72
2023-01-11T21:18:03.161Z,99850.63
2023-01-11T21:20:35.028Z,99841.13
2023-01-11T21:23:10.728Z,99828.06
2023-01-11T21:25:44.031Z,99830.69
2023-01-11T21:28:13.727Z,99837.66
2023-01-11T21:30:42.173Z,99831.59
2023-01-11T21:33:10.551Z,99820.25
2023-01-11T21:35:39.002Z,99814.25
2023-01-11T21:38:07.502Z,99808.28
2023-01-11T21:40:35.934Z,99806.69
2023-01-11T21:43:07.749Z,99800.72
2023-01-11T21:45:36.254Z,99800.78
2023-01-11T21:48:07.239Z,99792.22
2023-01-11T21:50:35.654Z,99784.47
2023-01-11T21:53:06.049Z,99789.75
2023-01-11T21:55:34.566Z,99785.47
2023-01-11T21:58:02.938Z,99790.69
2023-01-11T22:00:32.874Z,99795.03
2023-01-11T22:03:04.024Z,99795.91
2023-01-11T22:05:33.122Z,99788.00
2023-01-11T22:08:18.610Z,99792.31
2023-01-11T22:10:59.072Z,99788.81
2023-01-11T22:13:29.632Z,99787.88
2023-01-11T22:16:02.163Z,99787.78
2023-01-11T22:18:30.996Z,99792.09
2023-01-11T22:21:06.043Z,99788.59
2023-01-11T22:23:37.593Z,99792.88
2023-01-11T22:26:09.631Z,99805.06
2023-01-11T22:28:55.173Z,99788.47
2023-01-11T22:31:27.366Z,99799.72
2023-01-11T22:33:56.708Z,99794.44
2023-01-11T22:36:26.099Z,99800.53
2023-01-11T22:38:55.347Z,99808.34
2023-01-11T22:41:25.431Z,99804.72
2023-01-11T22:43:54.708Z,99813.34
2023-01-11T22:46:25.914Z,99805.41
2023-01-11T22:48:54.645Z,99810.47
2023-01-11T22:51:24.997Z,99795.63
2023-01-11T22:53:55.157Z,99796.38
2023-01-11T22:56:25.961Z,99790.25
2023-01-11T22:58:55.047Z,99802.34
2023-01-11T23:01:26.325Z,99785.75
2023-01-11T23:03:56.244Z,99796.16
2023-01-11T23:06:26.461Z,99793.56
2023-01-11T23:08:55.468Z,99791.81
2023-01-11T23:11:43.371Z,99787.47
2023-01-11T23:14:14.345Z,99788.34
2023-01-11T23:16:44.876Z,99802.25
2023-01-11T23:19:16.873Z,99792.69
2023-01-11T23:21:46.138Z,99789.16
2023-01-11T23:24:16.430Z,99789.16
2023-01-11T23:26:45.456Z,99797.91
2023-01-11T23:29:14.217Z,99784.81
2023-01-11T23:31:44.322Z,99797.78
2023-01-11T23:34:12.975Z,99779.50
2023-01-11T23:36:43.019Z,99789.88
2023-01-11T23:39:15.011Z,99783.72
2023-01-11T23:42:04.521Z,99787.09
2023-01-11T23:44:38.251Z,99788.78
2023-01-11T23:47:22.027Z,99789.56
2023-01-11T23:49:51.183Z,99792.09
2023-01-11T23:52:20.817Z,99798.91
2023-01-11T23:54:51.181Z,99793.63
2023-01-11T23:57:21.339Z,99783.97
2023-01-11T23:59:53.898Z,99793.38
